createdAt,value
2023-01-30T00:00:12.892Z,520.00
2023-01-30T00:00:42.957Z,520.00
2023-01-30T00:01:13.043Z,518.00
2023-01-30T00:01:43.213Z,517.00
2023-01-30T00:02:13.211Z,516.00
2023-01-30T00:02:43.163Z,515.00
2023-01-30T00:03:13.239Z,515.00
2023-01-30T00:03:43.337Z,513.00
2023-01-30T00:04:16.073Z,512.00
2023-01-30T00:04:43.556Z,512.00
2023-01-30T00:05:13.532Z,512.00
2023-01-30T00:05:43.588Z,513.00
2023-01-30T00:06:13.678Z,514.00
2023-01-30T00:06:43.770Z,514.00
2023-01-30T00:07:13.846Z,516.00
2023-01-30T00:07:43.920Z,516.00
2023-01-30T00:08:14.003Z,515.00
2023-01-30T00:08:44.086Z,516.00
2023-01-30T00:09:14.167Z,516.00
2023-01-30T00:09:44.251Z,516.00
2023-01-30T00:10:14.349Z,516.00
2023-01-30T00:10:44.425Z,515.00
2023-01-30T00:11:14.499Z,514.00
2023-01-30T00:11:44.591Z,514.00
2023-01-30T00:12:14.693Z,514.00
2023-01-30T00:12:44.782Z,513.00
2023-01-30T00:13:14.864Z,514.00
2023-01-30T00:13:44.942Z,515.00
2023-01-30T00:14:15.035Z,518.00
2023-01-30T00:14:45.113Z,519.00
2023-01-30T00:15:15.201Z,520.00
2023-01-30T00:15:45.280Z,519.00
2023-01-30T00:16:15.421Z,518.00
2023-01-30T00:16:45.426Z,521.00
2023-01-30T00:17:15.395Z,522.00
2023-01-30T00:17:45.498Z,521.00
2023-01-30T00:18:15.557Z,520.00
2023-01-30T00:18:45.651Z,520.00
2023-01-30T00:19:15.731Z,520.00
2023-01-30T00:19:45.817Z,518.00
2023-01-30T00:20:16.035Z,518.00
2023-01-30T00:20:46.011Z,519.00
2023-01-30T00:21:16.117Z,518.00
2023-01-30T00:21:46.185Z,517.00
2023-01-30T00:22:16.280Z,518.00
2023-01-30T00:22:59.191Z,517.00
2023-01-30T00:23:16.420Z,518.00
2023-01-30T00:23:46.508Z,518.00
2023-01-30T00:24:16.654Z,519.00
2023-01-30T00:24:46.796Z,519.00
2023-01-30T00:25:16.837Z,521.00
2023-01-30T00:25:46.939Z,520.00
2023-01-30T00:26:16.801Z,522.00
2023-01-30T00:26:46.830Z,521.00
2023-01-30T00:27:16.798Z,521.00
2023-01-30T00:27:46.890Z,522.00
2023-01-30T00:28:16.966Z,522.00
2023-01-30T00:28:47.046Z,520.00
2023-01-30T00:29:17.097Z,519.00
2023-01-30T00:29:57.770Z,517.00
2023-01-30T00:30:17.520Z,520.00
2023-01-30T00:30:47.248Z,519.00
2023-01-30T00:31:17.363Z,521.00
2023-01-30T00:31:47.484Z,519.00
2023-01-30T00:32:17.429Z,519.00
2023-01-30T00:32:47.507Z,519.00
2023-01-30T00:33:17.592Z,519.00
2023-01-30T00:33:47.679Z,521.00
2023-01-30T00:34:17.746Z,519.00
2023-01-30T00:34:47.835Z,519.00
2023-01-30T00:35:17.919Z,519.00
2023-01-30T00:35:48.002Z,519.00
2023-01-30T00:36:18.090Z,519.00
2023-01-30T00:36:58.820Z,521.00
2023-01-30T00:37:18.228Z,520.00
2023-01-30T00:37:48.312Z,519.00
2023-01-30T00:38:18.396Z,520.00
2023-01-30T00:38:48.479Z,520.00
2023-01-30T00:39:18.560Z,521.00
2023-01-30T00:39:48.647Z,521.00
2023-01-30T00:40:19.086Z,522.00
2023-01-30T00:40:48.838Z,520.00
2023-01-30T00:41:18.908Z,520.00
2023-01-30T00:41:48.932Z,518.00
2023-01-30T00:42:18.972Z,519.00
2023-01-30T00:42:49.001Z,514.00
2023-01-30T00:43:19.056Z,516.00
2023-01-30T00:43:49.088Z,517.00
2023-01-30T00:44:19.113Z,520.00
2023-01-30T00:44:49.167Z,520.00
2023-01-30T00:45:19.625Z,521.00
2023-01-30T00:45:49.335Z,521.00
2023-01-30T00:46:19.421Z,521.00
2023-01-30T00:46:49.426Z,522.00
2023-01-30T00:47:19.476Z,521.00
2023-01-30T00:47:49.500Z,520.00
2023-01-30T00:48:19.528Z,521.00
2023-01-30T00:48:49.580Z,519.00
2023-01-30T00:49:19.638Z,518.00
2023-01-30T00:49:49.663Z,520.00
2023-01-30T00:50:19.684Z,521.00
2023-01-30T00:50:49.734Z,520.00
2023-01-30T00:51:19.780Z,520.00
2023-01-30T00:51:49.869Z,518.00
2023-01-30T00:52:19.951Z,519.00
2023-01-30T00:52:50.028Z,520.00
2023-01-30T00:53:20.127Z,519.00
2023-01-30T00:53:50.217Z,518.00
2023-01-30T00:54:20.301Z,517.00
2023-01-30T00:54:50.393Z,517.00
2023-01-30T00:55:20.481Z,519.00
2023-01-30T00:55:50.580Z,519.00
2023-01-30T00:56:20.656Z,519.00
2023-01-30T00:56:50.732Z,518.00
2023-01-30T00:57:20.815Z,517.00
2023-01-30T00:57:50.899Z,517.00
2023-01-30T00:58:20.996Z,516.00
2023-01-30T00:58:51.063Z,517.00
2023-01-30T00:59:21.137Z,519.00
2023-01-30T00:59:51.221Z,519.00
2023-01-30T01:00:21.300Z,518.00
2023-01-30T01:00:51.403Z,518.00
2023-01-30T01:01:21.464Z,518.00
2023-01-30T01:01:51.582Z,518.00
2023-01-30T01:02:21.678Z,518.00
2023-01-30T01:02:51.781Z,519.00
2023-01-30T01:03:21.889Z,518.00
2023-01-30T01:03:51.909Z,517.00
2023-01-30T01:04:21.983Z,518.00
2023-01-30T01:04:52.086Z,519.00
2023-01-30T01:05:22.173Z,519.00
2023-01-30T01:05:52.249Z,521.00
2023-01-30T01:06:22.335Z,521.00
2023-01-30T01:06:52.410Z,521.00
2023-01-30T01:07:22.483Z,520.00
2023-01-30T01:07:52.577Z,519.00
2023-01-30T01:08:22.770Z,516.00
2023-01-30T01:08:52.740Z,514.00
2023-01-30T01:09:22.808Z,515.00
2023-01-30T01:09:52.897Z,515.00
2023-01-30T01:10:22.994Z,513.00
2023-01-30T01:10:53.064Z,513.00
2023-01-30T01:11:23.163Z,513.00
2023-01-30T01:11:53.222Z,512.00
2023-01-30T01:12:23.292Z,513.00
2023-01-30T01:12:53.388Z,513.00
2023-01-30T01:13:23.469Z,512.00
2023-01-30T01:13:53.545Z,511.00
2023-01-30T01:14:23.622Z,513.00
2023-01-30T01:14:53.779Z,513.00
2023-01-30T01:15:23.810Z,513.00
2023-01-30T01:15:53.889Z,512.00
2023-01-30T01:16:24.040Z,512.00
2023-01-30T01:16:54.019Z,511.00
2023-01-30T01:17:24.115Z,509.00
2023-01-30T01:17:54.208Z,513.00
2023-01-30T01:18:24.288Z,513.00
2023-01-30T01:18:54.362Z,514.00
2023-01-30T01:19:24.450Z,517.00
2023-01-30T01:19:54.530Z,518.00
2023-01-30T01:20:24.618Z,518.00
2023-01-30T01:20:54.711Z,519.00
2023-01-30T01:21:24.727Z,519.00
2023-01-30T01:21:54.811Z,519.00
2023-01-30T01:22:24.892Z,518.00
2023-01-30T01:22:54.975Z,518.00
2023-01-30T01:23:25.060Z,519.00
2023-01-30T01:23:55.161Z,518.00
2023-01-30T01:24:25.219Z,518.00
2023-01-30T01:24:55.312Z,518.00
2023-01-30T01:25:25.393Z,518.00
2023-01-30T01:25:55.483Z,517.00
2023-01-30T01:26:25.602Z,516.00
2023-01-30T01:26:55.567Z,515.00
2023-01-30T01:27:25.653Z,514.00
2023-01-30T01:27:55.736Z,515.00
2023-01-30T01:28:25.852Z,516.00
2023-01-30T01:28:55.897Z,517.00
2023-01-30T01:29:25.975Z,518.00
2023-01-30T01:29:56.058Z,517.00
2023-01-30T01:30:26.159Z,516.00
2023-01-30T01:30:56.269Z,517.00
2023-01-30T01:31:26.569Z,518.00
2023-01-30T01:31:56.425Z,518.00
2023-01-30T01:32:26.456Z,518.00
2023-01-30T01:32:56.533Z,517.00
2023-01-30T01:33:26.620Z,514.00
2023-01-30T01:33:56.706Z,516.00
2023-01-30T01:34:26.775Z,514.00
2023-01-30T01:34:56.866Z,513.00
2023-01-30T01:35:26.952Z,513.00
2023-01-30T01:35:57.038Z,514.00
2023-01-30T01:36:53.087Z,513.00
2023-01-30T01:36:57.175Z,513.00
2023-01-30T01:37:27.277Z,511.00
2023-01-30T01:37:57.339Z,510.00
2023-01-30T01:38:27.427Z,509.00
2023-01-30T01:38:57.505Z,510.00
2023-01-30T01:39:27.579Z,511.00
2023-01-30T01:39:57.671Z,511.00
2023-01-30T01:40:27.750Z,512.00
2023-01-30T01:40:57.849Z,513.00
2023-01-30T01:41:27.884Z,516.00
2023-01-30T01:41:57.963Z,516.00
2023-01-30T01:42:27.997Z,517.00
2023-01-30T01:42:58.033Z,520.00
2023-01-30T01:43:28.060Z,520.00
2023-01-30T01:43:58.114Z,516.00
2023-01-30T01:44:28.136Z,518.00
2023-01-30T01:44:58.163Z,518.00
2023-01-30T01:45:28.240Z,518.00
2023-01-30T01:45:58.279Z,519.00
2023-01-30T01:46:28.315Z,516.00
2023-01-30T01:46:58.344Z,516.00
2023-01-30T01:47:28.372Z,515.00
2023-01-30T01:47:58.431Z,515.00
2023-01-30T01:48:28.458Z,516.00
2023-01-30T01:48:58.490Z,514.00
2023-01-30T01:49:28.536Z,515.00
2023-01-30T01:49:58.567Z,515.00
2023-01-30T01:50:28.615Z,513.00
2023-01-30T01:50:58.670Z,513.00
2023-01-30T01:51:28.733Z,513.00
2023-01-30T01:51:58.813Z,513.00
2023-01-30T01:52:28.887Z,513.00
2023-01-30T01:52:58.962Z,512.00
2023-01-30T01:53:29.052Z,512.00
2023-01-30T01:53:59.145Z,512.00
2023-01-30T01:54:29.228Z,513.00
2023-01-30T01:54:59.315Z,513.00
2023-01-30T01:55:29.387Z,514.00
2023-01-30T01:55:59.478Z,514.00
2023-01-30T01:56:29.566Z,514.00
2023-01-30T01:56:59.641Z,512.00
2023-01-30T01:57:29.717Z,510.00
2023-01-30T01:57:59.808Z,509.00
2023-01-30T01:58:29.886Z,508.00
2023-01-30T01:58:59.975Z,510.00
2023-01-30T01:59:30.065Z,508.00
2023-01-30T02:00:00.147Z,509.00
2023-01-30T02:00:30.231Z,507.00
2023-01-30T02:01:00.346Z,507.00
2023-01-30T02:01:30.384Z,507.00
2023-01-30T02:02:00.393Z,507.00
2023-01-30T02:02:30.368Z,507.00
2023-01-30T02:03:00.433Z,506.00
2023-01-30T02:03:30.503Z,505.00
2023-01-30T02:04:00.593Z,504.00
2023-01-30T02:04:30.664Z,508.00
2023-01-30T02:05:00.756Z,511.00
2023-01-30T02:05:30.829Z,510.00
2023-01-30T02:06:00.945Z,508.00
2023-01-30T02:06:30.996Z,508.00
2023-01-30T02:07:01.016Z,508.00
2023-01-30T02:07:31.094Z,511.00
2023-01-30T02:08:01.181Z,510.00
2023-01-30T02:08:31.254Z,511.00
2023-01-30T02:09:01.344Z,512.00
2023-01-30T02:09:31.422Z,514.00
2023-01-30T02:10:01.503Z,514.00
2023-01-30T02:10:31.591Z,514.00
2023-01-30T02:11:01.672Z,512.00
2023-01-30T02:11:31.755Z,513.00
2023-01-30T02:12:01.844Z,513.00
2023-01-30T02:12:31.919Z,516.00
2023-01-30T02:13:01.995Z,519.00
2023-01-30T02:13:32.082Z,519.00
2023-01-30T02:14:02.156Z,517.00
2023-01-30T02:14:32.243Z,517.00
2023-01-30T02:15:02.326Z,516.00
2023-01-30T02:15:32.400Z,518.00
2023-01-30T02:16:02.498Z,517.00
2023-01-30T02:16:32.579Z,516.00
2023-01-30T02:17:02.653Z,516.00
2023-01-30T02:17:32.774Z,517.00
2023-01-30T02:18:02.836Z,516.00
2023-01-30T02:18:32.922Z,517.00
2023-01-30T02:19:03.020Z,518.00
2023-01-30T02:19:33.007Z,515.00
2023-01-30T02:20:03.084Z,517.00
2023-01-30T02:20:33.163Z,517.00
2023-01-30T02:21:03.249Z,516.00
2023-01-30T02:21:33.337Z,515.00
2023-01-30T02:22:03.436Z,515.00
2023-01-30T02:22:33.493Z,512.00
2023-01-30T02:23:03.572Z,513.00
2023-01-30T02:23:33.670Z,513.00
2023-01-30T02:24:03.741Z,514.00
2023-01-30T02:24:33.835Z,516.00
2023-01-30T02:25:03.915Z,514.00
2023-01-30T02:25:34.007Z,514.00
2023-01-30T02:26:04.092Z,513.00
2023-01-30T02:26:34.175Z,514.00
2023-01-30T02:27:04.253Z,515.00
2023-01-30T02:27:34.342Z,516.00
2023-01-30T02:28:04.430Z,514.00
2023-01-30T02:28:34.533Z,515.00
2023-01-30T02:29:04.598Z,514.00
2023-01-30T02:29:34.685Z,513.00
2023-01-30T02:30:04.764Z,514.00
2023-01-30T02:30:34.928Z,511.00
2023-01-30T02:31:05.004Z,510.00
2023-01-30T02:31:35.010Z,510.00
2023-01-30T02:32:04.964Z,510.00
2023-01-30T02:32:35.053Z,510.00
2023-01-30T02:33:05.126Z,511.00
2023-01-30T02:33:35.209Z,512.00
2023-01-30T02:34:05.295Z,512.00
2023-01-30T02:34:35.375Z,514.00
2023-01-30T02:35:05.455Z,515.00
2023-01-30T02:35:35.459Z,516.00
2023-01-30T02:36:05.547Z,515.00
2023-01-30T02:36:35.624Z,514.00
2023-01-30T02:37:05.702Z,514.00
2023-01-30T02:37:35.780Z,513.00
2023-01-30T02:38:05.854Z,510.00
2023-01-30T02:38:35.945Z,510.00
2023-01-30T02:39:06.036Z,512.00
2023-01-30T02:39:36.119Z,512.00
2023-01-30T02:40:06.191Z,514.00
2023-01-30T02:40:36.277Z,514.00
2023-01-30T02:41:06.355Z,514.00
2023-01-30T02:41:36.417Z,513.00
2023-01-30T02:42:06.444Z,512.00
2023-01-30T02:42:36.472Z,513.00
2023-01-30T02:43:06.522Z,512.00
2023-01-30T02:43:36.552Z,512.00
2023-01-30T02:44:06.590Z,511.00
2023-01-30T02:44:36.632Z,512.00
2023-01-30T02:45:06.660Z,511.00
2023-01-30T02:46:15.882Z,530.00
2023-01-30T02:46:45.888Z,534.00
2023-01-30T02:47:15.962Z,534.00
2023-01-30T02:47:45.987Z,535.00
2023-01-30T02:48:16.021Z,535.00
2023-01-30T02:48:46.114Z,536.00
2023-01-30T02:49:16.130Z,535.00
2023-01-30T02:49:46.217Z,534.00
2023-01-30T02:50:16.269Z,532.00
2023-01-30T02:50:46.286Z,531.00
2023-01-30T02:51:16.343Z,532.00
2023-01-30T02:51:46.376Z,530.00
2023-01-30T02:52:18.334Z,527.00
2023-01-30T02:52:46.498Z,526.00
2023-01-30T02:53:16.524Z,526.00
2023-01-30T02:53:46.575Z,526.00
2023-01-30T02:54:16.619Z,526.00
2023-01-30T02:54:46.650Z,525.00
2023-01-30T02:55:17.031Z,524.00
2023-01-30T02:55:46.723Z,524.00
2023-01-30T02:56:16.807Z,526.00
2023-01-30T02:56:46.896Z,523.00
2023-01-30T02:57:16.986Z,524.00
2023-01-30T02:57:47.093Z,526.00
2023-01-30T02:58:17.150Z,523.00
2023-01-30T02:58:47.231Z,521.00
2023-01-30T02:59:17.314Z,520.00
2023-01-30T02:59:47.399Z,521.00
2023-01-30T03:00:17.483Z,521.00
2023-01-30T03:00:47.573Z,522.00
2023-01-30T03:01:17.684Z,522.00
2023-01-30T03:01:47.748Z,522.00
2023-01-30T03:02:17.851Z,523.00
2023-01-30T03:02:47.978Z,524.00
2023-01-30T03:03:17.946Z,523.00
2023-01-30T03:03:48.063Z,525.00
2023-01-30T03:04:18.127Z,525.00
2023-01-30T03:04:48.208Z,524.00
2023-01-30T03:05:18.748Z,524.00
2023-01-30T03:05:48.395Z,523.00
2023-01-30T03:06:18.486Z,524.00
2023-01-30T03:06:48.567Z,525.00
2023-01-30T03:07:18.647Z,524.00
2023-01-30T03:07:48.726Z,523.00
2023-01-30T03:08:18.818Z,526.00
2023-01-30T03:08:48.895Z,524.00
2023-01-30T03:09:18.980Z,525.00
2023-01-30T03:09:49.019Z,527.00
2023-01-30T03:10:19.127Z,523.00
2023-01-30T03:10:49.202Z,524.00
2023-01-30T03:11:19.285Z,523.00
2023-01-30T03:11:49.336Z,523.00
2023-01-30T03:12:19.420Z,524.00
2023-01-30T03:12:49.473Z,524.00
2023-01-30T03:13:19.500Z,522.00
2023-01-30T03:13:49.539Z,520.00
2023-01-30T03:14:19.618Z,518.00
2023-01-30T03:14:49.768Z,517.00
2023-01-30T03:15:19.928Z,518.00
2023-01-30T03:15:49.801Z,518.00
2023-01-30T03:16:19.879Z,518.00
2023-01-30T03:16:49.841Z,517.00
2023-01-30T03:17:19.925Z,517.00
2023-01-30T03:17:50.001Z,517.00
2023-01-30T03:18:20.087Z,518.00
2023-01-30T03:18:50.155Z,519.00
2023-01-30T03:19:20.239Z,519.00
2023-01-30T03:19:50.325Z,519.00
2023-01-30T03:20:20.411Z,519.00
2023-01-30T03:20:50.496Z,519.00
2023-01-30T03:21:20.580Z,518.00
2023-01-30T03:21:50.650Z,517.00
2023-01-30T03:22:20.747Z,516.00
2023-01-30T03:22:50.833Z,515.00
2023-01-30T03:23:20.914Z,515.00
2023-01-30T03:23:51.004Z,514.00
2023-01-30T03:24:21.073Z,514.00
2023-01-30T03:24:51.165Z,516.00
2023-01-30T03:25:21.173Z,515.00
2023-01-30T03:25:51.249Z,514.00
2023-01-30T03:26:21.446Z,514.00
2023-01-30T03:26:51.411Z,513.00
2023-01-30T03:27:21.500Z,513.00
2023-01-30T03:27:51.593Z,515.00
2023-01-30T03:28:21.678Z,515.00
2023-01-30T03:28:51.780Z,517.00
2023-01-30T03:29:21.841Z,517.00
2023-01-30T03:29:51.919Z,517.00
2023-01-30T03:30:22.000Z,517.00
2023-01-30T03:30:52.173Z,517.00
2023-01-30T03:31:22.374Z,517.00
2023-01-30T03:31:52.278Z,517.00
2023-01-30T03:32:22.280Z,518.00
2023-01-30T03:32:52.359Z,520.00
2023-01-30T03:33:22.440Z,522.00
2023-01-30T03:33:52.513Z,521.00
2023-01-30T03:34:22.541Z,521.00
2023-01-30T03:34:52.629Z,521.00
2023-01-30T03:35:22.701Z,521.00
2023-01-30T03:35:52.953Z,519.00
2023-01-30T03:36:22.792Z,522.00
2023-01-30T03:36:52.909Z,520.00
2023-01-30T03:37:22.969Z,518.00
2023-01-30T03:37:53.050Z,519.00
2023-01-30T03:38:23.133Z,518.00
2023-01-30T03:38:53.212Z,518.00
2023-01-30T03:39:23.300Z,517.00
2023-01-30T03:39:53.353Z,517.00
2023-01-30T03:40:23.427Z,517.00
2023-01-30T03:40:53.514Z,519.00
2023-01-30T03:41:23.595Z,519.00
2023-01-30T03:41:53.680Z,517.00
2023-01-30T03:42:23.764Z,518.00
2023-01-30T03:42:53.848Z,518.00
2023-01-30T03:43:23.937Z,518.00
2023-01-30T03:43:54.027Z,518.00
2023-01-30T03:44:24.134Z,518.00
2023-01-30T03:44:54.192Z,517.00
2023-01-30T03:45:24.272Z,517.00
2023-01-30T03:45:54.381Z,517.00
2023-01-30T03:46:24.470Z,516.00
2023-01-30T03:46:54.487Z,517.00
2023-01-30T03:47:24.530Z,518.00
2023-01-30T03:47:54.559Z,517.00
2023-01-30T03:48:24.669Z,516.00
2023-01-30T03:48:54.715Z,516.00
2023-01-30T03:49:24.761Z,518.00
2023-01-30T03:49:54.789Z,517.00
2023-01-30T03:50:24.835Z,516.00
2023-01-30T03:50:54.870Z,515.00
2023-01-30T03:51:24.919Z,513.00
2023-01-30T03:51:54.981Z,513.00
2023-01-30T03:52:25.010Z,513.00
2023-01-30T03:52:55.061Z,513.00
2023-01-30T03:53:25.093Z,513.00
2023-01-30T03:53:55.127Z,514.00
2023-01-30T03:54:25.159Z,514.00
2023-01-30T03:54:55.202Z,513.00
2023-01-30T03:55:25.258Z,513.00
2023-01-30T03:55:55.328Z,514.00
2023-01-30T03:56:25.525Z,514.00
2023-01-30T03:56:55.523Z,514.00
2023-01-30T03:57:25.600Z,513.00
2023-01-30T03:57:55.681Z,515.00
2023-01-30T03:58:25.772Z,513.00
2023-01-30T03:58:55.852Z,514.00
2023-01-30T03:59:25.965Z,516.00
2023-01-30T03:59:56.028Z,515.00
2023-01-30T04:00:26.165Z,515.00
2023-01-30T04:00:56.860Z,514.00
2023-01-30T04:01:26.244Z,515.00
2023-01-30T04:01:56.204Z,516.00
2023-01-30T04:02:26.390Z,517.00
2023-01-30T04:02:56.358Z,518.00
2023-01-30T04:03:26.452Z,517.00
2023-01-30T04:03:56.528Z,516.00
2023-01-30T04:04:26.608Z,517.00
2023-01-30T04:04:56.689Z,518.00
2023-01-30T04:05:26.769Z,518.00
2023-01-30T04:05:56.864Z,519.00
2023-01-30T04:06:26.982Z,516.00
2023-01-30T04:06:56.945Z,517.00
2023-01-30T04:07:27.028Z,515.00
2023-01-30T04:07:57.110Z,515.00
2023-01-30T04:08:27.196Z,515.00
2023-01-30T04:08:57.301Z,516.00
2023-01-30T04:09:27.364Z,515.00
2023-01-30T04:09:57.452Z,514.00
2023-01-30T04:10:27.529Z,513.00
2023-01-30T04:10:57.621Z,513.00
2023-01-30T04:11:27.763Z,513.00
2023-01-30T04:11:57.731Z,514.00
2023-01-30T04:12:27.811Z,513.00
2023-01-30T04:12:57.905Z,513.00
2023-01-30T04:13:27.992Z,514.00
2023-01-30T04:13:58.074Z,516.00
2023-01-30T04:14:28.165Z,518.00
2023-01-30T04:14:58.223Z,518.00
2023-01-30T04:15:28.302Z,517.00
2023-01-30T04:15:58.396Z,517.00
2023-01-30T04:16:28.611Z,517.00
2023-01-30T04:16:58.607Z,516.00
2023-01-30T04:17:28.572Z,517.00
2023-01-30T04:17:58.658Z,516.00
2023-01-30T04:18:28.745Z,516.00
2023-01-30T04:18:58.823Z,513.00
2023-01-30T04:19:28.893Z,513.00
2023-01-30T04:19:58.986Z,512.00
2023-01-30T04:20:29.081Z,512.00
2023-01-30T04:20:59.162Z,513.00
2023-01-30T04:21:29.271Z,514.00
2023-01-30T04:21:59.352Z,514.00
2023-01-30T04:22:29.435Z,514.00
2023-01-30T04:22:59.511Z,517.00
2023-01-30T04:23:29.606Z,517.00
2023-01-30T04:23:59.693Z,519.00
2023-01-30T04:24:29.772Z,519.00
2023-01-30T04:24:59.868Z,519.00
2023-01-30T04:25:29.956Z,517.00
2023-01-30T04:26:00.050Z,518.00
2023-01-30T04:26:30.241Z,516.00
2023-01-30T04:27:00.135Z,515.00
2023-01-30T04:27:30.219Z,513.00
2023-01-30T04:28:00.304Z,514.00
2023-01-30T04:28:30.384Z,515.00
2023-01-30T04:29:00.471Z,515.00
2023-01-30T04:29:30.692Z,517.00
2023-01-30T04:30:00.631Z,517.00
2023-01-30T04:30:30.778Z,516.00
2023-01-30T04:31:00.815Z,515.00
2023-01-30T04:31:30.942Z,517.00
2023-01-30T04:32:00.822Z,518.00
2023-01-30T04:32:30.908Z,519.00
2023-01-30T04:33:00.999Z,518.00
2023-01-30T04:33:31.070Z,519.00
2023-01-30T04:34:01.148Z,519.00
2023-01-30T04:34:31.234Z,520.00
2023-01-30T04:35:01.317Z,519.00
2023-01-30T04:35:31.391Z,519.00
2023-01-30T04:36:01.478Z,519.00
2023-01-30T04:36:31.578Z,520.00
2023-01-30T04:37:01.676Z,519.00
2023-01-30T04:37:31.744Z,519.00
2023-01-30T04:38:01.820Z,519.00
2023-01-30T04:38:31.898Z,520.00
2023-01-30T04:39:01.984Z,520.00
2023-01-30T04:39:32.086Z,522.00
2023-01-30T04:40:02.155Z,521.00
2023-01-30T04:40:32.246Z,522.00
2023-01-30T04:41:02.316Z,522.00
2023-01-30T04:41:32.414Z,521.00
2023-01-30T04:42:02.499Z,524.00
2023-01-30T04:42:32.576Z,524.00
2023-01-30T04:43:02.658Z,524.00
2023-01-30T04:43:32.740Z,525.00
2023-01-30T04:44:02.825Z,523.00
2023-01-30T04:44:32.927Z,523.00
2023-01-30T04:45:02.979Z,523.00
2023-01-30T04:45:33.062Z,523.00
2023-01-30T04:46:03.130Z,523.00
2023-01-30T04:46:33.189Z,524.00
2023-01-30T04:47:03.236Z,524.00
2023-01-30T04:47:33.339Z,523.00
2023-01-30T04:48:03.285Z,522.00
2023-01-30T04:48:33.323Z,521.00
2023-01-30T04:49:03.365Z,520.00
2023-01-30T04:49:33.388Z,518.00
2023-01-30T04:50:03.433Z,523.00
2023-01-30T04:50:33.489Z,520.00
2023-01-30T04:51:03.539Z,516.00
2023-01-30T04:51:33.591Z,519.00
2023-01-30T04:52:03.642Z,519.00
2023-01-30T04:52:33.672Z,518.00
2023-01-30T04:53:03.713Z,519.00
2023-01-30T04:53:33.752Z,518.00
2023-01-30T04:54:03.784Z,519.00
2023-01-30T04:54:33.866Z,520.00
2023-01-30T04:55:03.867Z,521.00
2023-01-30T04:55:33.916Z,522.00
2023-01-30T04:56:03.985Z,519.00
2023-01-30T04:56:34.073Z,520.00
2023-01-30T04:57:04.155Z,521.00
2023-01-30T04:57:34.237Z,521.00
2023-01-30T04:58:04.314Z,523.00
2023-01-30T04:58:34.418Z,521.00
2023-01-30T04:59:04.477Z,520.00
2023-01-30T04:59:34.594Z,521.00
2023-01-30T05:00:04.652Z,522.00
2023-01-30T05:00:34.787Z,525.00
2023-01-30T05:01:04.806Z,525.00
2023-01-30T05:01:34.883Z,525.00
2023-01-30T05:02:04.899Z,524.00
2023-01-30T05:02:34.853Z,524.00
2023-01-30T05:03:04.939Z,523.00
2023-01-30T05:03:35.010Z,523.00
2023-01-30T05:04:05.098Z,524.00
2023-01-30T05:04:35.093Z,525.00
2023-01-30T05:05:05.176Z,525.00
2023-01-30T05:05:35.266Z,526.00
2023-01-30T05:06:05.339Z,528.00
2023-01-30T05:06:35.430Z,526.00
2023-01-30T05:07:05.523Z,526.00
2023-01-30T05:07:35.579Z,528.00
2023-01-30T05:08:05.663Z,528.00
2023-01-30T05:08:35.757Z,528.00
2023-01-30T05:09:05.856Z,528.00
2023-01-30T05:09:35.930Z,527.00
2023-01-30T05:10:06.005Z,525.00
2023-01-30T05:10:36.097Z,526.00
2023-01-30T05:11:06.176Z,525.00
2023-01-30T05:11:36.273Z,525.00
2023-01-30T05:12:06.352Z,526.00
2023-01-30T05:12:36.426Z,528.00
2023-01-30T05:13:06.513Z,528.00
2023-01-30T05:13:36.598Z,530.00
2023-01-30T05:14:06.686Z,532.00
2023-01-30T05:14:36.736Z,533.00
2023-01-30T05:15:06.865Z,530.00
2023-01-30T05:15:36.837Z,532.00
2023-01-30T05:16:06.923Z,534.00
2023-01-30T05:16:37.003Z,533.00
2023-01-30T05:17:07.180Z,534.00
2023-01-30T05:17:37.141Z,540.00
2023-01-30T05:18:07.231Z,543.00
2023-01-30T05:18:37.315Z,545.00
2023-01-30T05:19:07.393Z,547.00
2023-01-30T05:19:37.487Z,549.00
2023-01-30T05:20:07.552Z,555.00
2023-01-30T05:20:37.656Z,557.00
2023-01-30T05:21:07.713Z,560.00
2023-01-30T05:21:37.809Z,562.00
2023-01-30T05:22:07.894Z,566.00
2023-01-30T05:22:37.972Z,569.00
2023-01-30T05:23:08.117Z,569.00
2023-01-30T05:23:38.085Z,568.00
2023-01-30T05:24:08.158Z,569.00
2023-01-30T05:24:38.244Z,572.00
2023-01-30T05:25:08.343Z,571.00
2023-01-30T05:25:38.405Z,575.00
2023-01-30T05:26:08.491Z,578.00
2023-01-30T05:26:38.615Z,578.00
2023-01-30T05:27:08.617Z,581.00
2023-01-30T05:27:38.699Z,580.00
2023-01-30T05:28:08.771Z,581.00
2023-01-30T05:28:38.859Z,582.00
2023-01-30T05:29:08.942Z,585.00
2023-01-30T05:29:39.032Z,585.00
2023-01-30T05:30:09.103Z,586.00
2023-01-30T05:30:39.222Z,588.00
2023-01-30T05:31:09.436Z,590.00
2023-01-30T05:31:39.337Z,592.00
2023-01-30T05:32:09.409Z,594.00
2023-01-30T05:32:39.480Z,595.00
2023-01-30T05:33:09.572Z,597.00
2023-01-30T05:33:39.677Z,598.00
2023-01-30T05:34:09.750Z,597.00
2023-01-30T05:34:39.834Z,598.00
2023-01-30T05:35:10.071Z,598.00
2023-01-30T05:35:39.930Z,598.00
2023-01-30T05:36:10.117Z,600.00
2023-01-30T05:36:40.073Z,600.00
2023-01-30T05:37:10.167Z,601.00
2023-01-30T05:37:40.255Z,601.00
2023-01-30T05:38:10.334Z,601.00
2023-01-30T05:38:40.428Z,600.00
2023-01-30T05:39:10.512Z,603.00
2023-01-30T05:39:40.581Z,603.00
2023-01-30T05:40:10.669Z,603.00
2023-01-30T05:40:40.747Z,603.00
2023-01-30T05:41:10.830Z,604.00
2023-01-30T05:41:40.908Z,603.00
2023-01-30T05:42:10.983Z,605.00
2023-01-30T05:42:41.074Z,604.00
2023-01-30T05:43:11.144Z,605.00
2023-01-30T05:43:41.246Z,606.00
2023-01-30T05:44:12.455Z,605.00
2023-01-30T05:44:41.426Z,604.00
2023-01-30T05:45:11.507Z,604.00
2023-01-30T05:45:41.488Z,606.00
2023-01-30T05:46:11.563Z,605.00
2023-01-30T05:46:41.653Z,606.00
2023-01-30T05:47:11.599Z,609.00
2023-01-30T05:47:41.620Z,609.00
2023-01-30T05:48:11.668Z,609.00
2023-01-30T05:48:41.698Z,610.00
2023-01-30T05:49:11.730Z,610.00
2023-01-30T05:49:41.771Z,612.00
2023-01-30T05:50:11.800Z,613.00
2023-01-30T05:50:41.829Z,614.00
2023-01-30T05:51:11.859Z,613.00
2023-01-30T05:51:41.921Z,613.00
2023-01-30T05:52:11.948Z,614.00
2023-01-30T05:52:41.976Z,613.00
2023-01-30T05:53:12.019Z,615.00
2023-01-30T05:53:42.055Z,618.00
2023-01-30T05:54:12.087Z,618.00
2023-01-30T05:54:42.143Z,619.00
2023-01-30T05:55:12.161Z,621.00
2023-01-30T05:55:42.188Z,621.00
2023-01-30T05:56:12.284Z,623.00
2023-01-30T05:56:42.394Z,624.00
2023-01-30T05:57:12.463Z,623.00
2023-01-30T05:57:42.546Z,623.00
2023-01-30T05:58:12.635Z,622.00
2023-01-30T05:58:42.714Z,622.00
2023-01-30T05:59:12.793Z,623.00
2023-01-30T05:59:42.926Z,624.00
2023-01-30T06:00:12.974Z,625.00
2023-01-30T06:00:43.051Z,626.00
2023-01-30T06:01:13.147Z,625.00
2023-01-30T06:01:43.218Z,627.00
2023-01-30T06:02:13.302Z,627.00
2023-01-30T06:02:43.461Z,629.00
2023-01-30T06:03:13.399Z,630.00
2023-01-30T06:03:43.582Z,630.00
2023-01-30T06:04:13.542Z,629.00
2023-01-30T06:04:43.628Z,628.00
2023-01-30T06:05:13.705Z,628.00
2023-01-30T06:05:43.779Z,627.00
2023-01-30T06:06:13.884Z,628.00
2023-01-30T06:06:43.946Z,628.00
2023-01-30T06:07:14.031Z,629.00
2023-01-30T06:07:44.100Z,635.00
2023-01-30T06:08:14.198Z,637.00
2023-01-30T06:08:44.294Z,639.00
2023-01-30T06:09:14.360Z,641.00
2023-01-30T06:09:44.452Z,638.00
2023-01-30T06:10:14.527Z,637.00
2023-01-30T06:10:44.593Z,636.00
2023-01-30T06:11:14.694Z,635.00
2023-01-30T06:11:44.774Z,638.00
2023-01-30T06:12:14.863Z,637.00
2023-01-30T06:12:44.941Z,639.00
2023-01-30T06:13:15.018Z,640.00
2023-01-30T06:13:45.103Z,642.00
2023-01-30T06:14:15.192Z,646.00
2023-01-30T06:14:45.292Z,644.00
2023-01-30T06:15:15.721Z,644.00
2023-01-30T06:15:45.503Z,644.00